sensor_id;sensor_type;location;lat;lon;timestamp;P1;durP1;ratioP1;P2;durP2;ratioP2
23624;SDS011;11989;47.872;12.014;2023-01-08T07:17:43;10.07;;;6.70;;
23624;SDS011;11989;47.872;12.014;2023-01-08T07:20:09;11.63;;;7.03;;
23624;SDS011;11989;47.872;12.014;2023-01-08T07:22:35;11.77;;;7.60;;
23624;SDS011;11989;47.872;12.014;2023-01-08T07:25:01;11.10;;;7.03;;
23624;SDS011;11989;47.872;12.014;2023-01-08T07:27:29;11.05;;;7.30;;
23624;SDS011;11989;47.872;12.014;2023-01-08T07:29:55;11.30;;;6.28;;
23624;SDS011;11989;47.872;12.014;2023-01-08T07:32:21;10.20;;;5.80;;
23624;SDS011;11989;47.872;12.014;2023-01-08T07:34:47;6.93;;;5.78;;
23624;SDS011;11989;47.872;12.014;2023-01-08T07:37:13;9.35;;;6.63;;
23624;SDS011;11989;47.872;12.014;2023-01-08T07:39:39;8.82;;;5.65;;
23624;SDS011;11989;47.872;12.014;2023-01-08T07:42:05;9.77;;;5.88;;
23624;SDS011;11989;47.872;12.014;2023-01-08T07:44:31;10.32;;;5.85;;
23624;SDS011;11989;47.872;12.014;2023-01-08T07:46:57;8.15;;;5.40;;
23624;SDS011;11989;47.872;12.014;2023-01-08T07:49:23;8.75;;;5.65;;
23624;SDS011;11989;47.872;12.014;2023-01-08T07:51:49;8.57;;;5.47;;
23624;SDS011;11989;47.872;12.014;2023-01-08T07:54:15;9.57;;;6.05;;
23624;SDS011;11989;47.872;12.014;2023-01-08T07:56:41;9.25;;;6.55;;
23624;SDS011;11989;47.872;12.014;2023-01-08T07:59:07;14.30;;;8.18;;
23624;SDS011;11989;47.872;12.014;2023-01-08T08:01:33;8.48;;;6.38;;
23624;SDS011;11989;47.872;12.014;2023-01-08T08:03:59;10.48;;;6.15;;
23624;SDS011;11989;47.872;12.014;2023-01-08T08:06:25;6.25;;;4.57;;
23624;SDS011;11989;47.872;12.014;2023-01-08T08:08:51;8.13;;;5.50;;
23624;SDS011;11989;47.872;12.014;2023-01-08T08:11:17;9.70;;;5.72;;
23624;SDS011;11989;47.872;12.014;2023-01-08T08:13:43;8.20;;;5.43;;
23624;SDS011;11989;47.872;12.014;2023-01-08T08:16:11;9.10;;;5.28;;
23624;SDS011;11989;47.872;12.014;2023-01-08T08:18:37;8.90;;;6.00;;
23624;SDS011;11989;47.872;12.014;2023-01-08T08:21:03;11.95;;;7.35;;
23624;SDS011;11989;47.872;12.014;2023-01-08T08:23:30;11.75;;;8.50;;
23624;SDS011;11989;47.872;12.014;2023-01-08T08:25:56;10.60;;;7.53;;
23624;SDS011;11989;47.872;12.014;2023-01-08T08:28:22;24.52;;;13.25;;
23624;SDS011;11989;47.872;12.014;2023-01-08T08:30:49;18.52;;;12.00;;
23624;SDS011;11989;47.872;12.014;2023-01-08T08:33:15;17.05;;;11.40;;
23624;SDS011;11989;47.872;12.014;2023-01-08T08:35:46;16.17;;;8.38;;
23624;SDS011;11989;47.872;12.014;2023-01-08T08:38:12;16.63;;;9.20;;
23624;SDS011;11989;47.872;12.014;2023-01-08T08:40:38;15.27;;;9.00;;
23624;SDS011;11989;47.872;12.014;2023-01-08T08:43:04;14.27;;;9.25;;
23624;SDS011;11989;47.872;12.014;2023-01-08T08:48:22;10.48;;;8.15;;
23624;SDS011;11989;47.872;12.014;2023-01-08T08:51:05;13.95;;;9.00;;
23624;SDS011;11989;47.872;12.014;2023-01-08T08:53:31;12.38;;;10.32;;
23624;SDS011;11989;47.872;12.014;2023-01-08T08:55:57;14.18;;;9.90;;
23624;SDS011;11989;47.872;12.014;2023-01-08T08:58:23;12.93;;;9.35;;
23624;SDS011;11989;47.872;12.014;2023-01-08T09:00:49;12.88;;;8.48;;
23624;SDS011;11989;47.872;12.014;2023-01-08T09:03:36;11.77;;;9.02;;
23624;SDS011;11989;47.872;12.014;2023-01-08T09:06:02;10.35;;;9.02;;
23624;SDS011;11989;47.872;12.014;2023-01-08T09:08:28;10.40;;;8.00;;
23624;SDS011;11989;47.872;12.014;2023-01-08T09:10:54;10.13;;;7.32;;
23624;SDS011;11989;47.872;12.014;2023-01-08T09:13:20;9.55;;;6.25;;
23624;SDS011;11989;47.872;12.014;2023-01-08T09:15:46;7.32;;;4.97;;
23624;SDS011;11989;47.872;12.014;2023-01-08T09:18:12;8.50;;;6.28;;
23624;SDS011;11989;47.872;12.014;2023-01-08T09:20:38;9.70;;;6.53;;
23624;SDS011;11989;47.872;12.014;2023-01-08T09:23:04;17.60;;;12.93;;
23624;SDS011;11989;47.872;12.014;2023-01-08T09:25:31;12.55;;;9.88;;
23624;SDS011;11989;47.872;12.014;2023-01-08T09:28:02;12.65;;;9.63;;
23624;SDS011;11989;47.872;12.014;2023-01-08T09:30:29;10.32;;;7.63;;
23624;SDS011;11989;47.872;12.014;2023-01-08T09:32:58;8.98;;;6.97;;
23624;SDS011;11989;47.872;12.014;2023-01-08T09:35:24;12.57;;;7.95;;
23624;SDS011;11989;47.872;12.014;2023-01-08T09:37:51;10.25;;;7.55;;
23624;SDS011;11989;47.872;12.014;2023-01-08T09:40:17;22.80;;;17.38;;
23624;SDS011;11989;47.872;12.014;2023-01-08T09:42:44;19.85;;;14.23;;
23624;SDS011;11989;47.872;12.014;2023-01-08T09:45:27;23.27;;;15.98;;
23624;SDS011;11989;47.872;12.014;2023-01-08T09:47:53;15.57;;;11.65;;
23624;SDS011;11989;47.872;12.014;2023-01-08T09:50:20;13.88;;;10.23;;
23624;SDS011;11989;47.872;12.014;2023-01-08T09:52:46;12.20;;;9.07;;
23624;SDS011;11989;47.872;12.014;2023-01-08T09:55:13;11.63;;;9.50;;
23624;SDS011;11989;47.872;12.014;2023-01-08T09:57:40;12.20;;;9.63;;
23624;SDS011;11989;47.872;12.014;2023-01-08T10:00:13;17.50;;;12.32;;
23624;SDS011;11989;47.872;12.014;2023-01-08T10:02:39;16.55;;;10.05;;
23624;SDS011;11989;47.872;12.014;2023-01-08T10:05:10;14.93;;;9.70;;
23624;SDS011;11989;47.872;12.014;2023-01-08T10:07:37;18.17;;;11.80;;
23624;SDS011;11989;47.872;12.014;2023-01-08T10:10:04;19.02;;;14.48;;
23624;SDS011;11989;47.872;12.014;2023-01-08T10:12:31;18.70;;;13.23;;
23624;SDS011;11989;47.872;12.014;2023-01-08T10:15:04;14.57;;;11.25;;
23624;SDS011;11989;47.872;12.014;2023-01-08T10:17:38;17.90;;;12.30;;
23624;SDS011;11989;47.872;12.014;2023-01-08T10:20:11;13.82;;;8.68;;
23624;SDS011;11989;47.872;12.014;2023-01-08T10:22:37;13.60;;;8.35;;
23624;SDS011;11989;47.872;12.014;2023-01-08T10:25:05;13.80;;;9.60;;
23624;SDS011;11989;47.872;12.014;2023-01-08T10:27:31;12.63;;;10.13;;
23624;SDS011;11989;47.872;12.014;2023-01-08T10:30:05;16.77;;;10.73;;
23624;SDS011;11989;47.872;12.014;2023-01-08T10:32:31;12.95;;;7.95;;
23624;SDS011;11989;47.872;12.014;2023-01-08T10:35:02;10.40;;;6.60;;
23624;SDS011;11989;47.872;12.014;2023-01-08T10:37:38;10.93;;;6.82;;
23624;SDS011;11989;47.872;12.014;2023-01-08T10:40:22;10.80;;;6.82;;
23624;SDS011;11989;47.872;12.014;2023-01-08T10:42:49;9.73;;;7.20;;
23624;SDS011;11989;47.872;12.014;2023-01-08T10:45:19;8.82;;;6.90;;
23624;SDS011;11989;47.872;12.014;2023-01-08T10:47:47;11.05;;;7.75;;
